createdAt,value
2023-05-15T00:01:24.667Z,100570.69
2023-05-15T00:03:52.801Z,100589.25
2023-05-15T00:06:19.927Z,100536.75
2023-05-15T00:08:46.405Z,100582.59
2023-05-15T00:11:13.337Z,100580.56
2023-05-15T00:13:39.818Z,100517.00
2023-05-15T00:16:07.883Z,100534.44
2023-05-15T00:18:34.951Z,100568.13
2023-05-15T00:21:01.418Z,100563.97
2023-05-15T00:23:28.004Z,100557.03
2023-05-15T00:25:54.916Z,100583.38
2023-05-15T00:28:21.511Z,100584.75
2023-05-15T00:30:48.043Z,100575.53
2023-05-15T00:33:14.965Z,100573.00
2023-05-15T00:35:41.421Z,100576.53
2023-05-15T00:38:07.902Z,100532.88
2023-05-15T00:40:36.113Z,100570.88
2023-05-15T00:43:02.951Z,100529.41
2023-05-15T00:45:30.388Z,100549.63
2023-05-15T00:47:58.677Z,100528.50
2023-05-15T00:50:25.607Z,100553.66
2023-05-15T00:52:52.712Z,100539.28
2023-05-15T00:55:19.502Z,100562.25
2023-05-15T00:57:47.882Z,100566.81
2023-05-15T01:00:16.934Z,100569.50
2023-05-15T01:02:44.366Z,100560.22
2023-05-15T01:05:11.978Z,100563.09
2023-05-15T01:07:45.994Z,100559.22
2023-05-15T01:10:13.146Z,100534.56
2023-05-15T01:12:40.518Z,100543.97
2023-05-15T01:15:07.401Z,100510.94
2023-05-15T01:17:33.987Z,100522.75
2023-05-15T01:20:02.858Z,100552.19
2023-05-15T01:22:40.723Z,100495.53
2023-05-15T01:25:22.722Z,100560.69
2023-05-15T01:27:51.735Z,100555.69
2023-05-15T01:30:22.509Z,100553.91
2023-05-15T01:33:17.284Z,100546.31
2023-05-15T01:35:48.345Z,100486.22
2023-05-15T01:38:21.277Z,100549.13
2023-05-15T01:40:57.736Z,100545.88
2023-05-15T01:43:28.531Z,100518.59
2023-05-15T01:45:56.173Z,100529.84
2023-05-15T01:48:22.960Z,100549.31
2023-05-15T01:50:51.514Z,100500.84
2023-05-15T01:53:18.881Z,100541.06
2023-05-15T01:55:46.731Z,100534.19
2023-05-15T01:58:14.134Z,100538.69
2023-05-15T02:00:41.425Z,100518.47
2023-05-15T02:03:08.836Z,100534.38
2023-05-15T02:05:35.760Z,100508.06
2023-05-15T02:08:05.558Z,100539.56
2023-05-15T02:10:33.803Z,100490.41
2023-05-15T02:13:00.886Z,100540.75
2023-05-15T02:15:29.208Z,100540.63
2023-05-15T02:17:56.738Z,100538.91
2023-05-15T02:20:24.279Z,100531.25
2023-05-15T02:22:50.770Z,100529.72
2023-05-15T02:25:18.009Z,100481.88
2023-05-15T02:27:56.235Z,100529.22
2023-05-15T02:30:32.885Z,100528.06
2023-05-15T02:33:08.229Z,100521.47
2023-05-15T02:35:53.271Z,100536.69
2023-05-15T02:38:24.139Z,100541.34
2023-05-15T02:40:51.454Z,100544.16
2023-05-15T02:43:18.793Z,100495.41
2023-05-15T02:45:47.870Z,100537.63
2023-05-15T02:48:15.913Z,100536.63
2023-05-15T02:50:43.151Z,100503.50
2023-05-15T02:53:10.281Z,100541.88
2023-05-15T02:55:38.266Z,100524.41
2023-05-15T02:58:05.485Z,100534.03
2023-05-15T03:00:32.112Z,100526.69
2023-05-15T03:02:59.167Z,100529.22
2023-05-15T03:05:27.095Z,100538.88
2023-05-15T03:07:53.863Z,100515.94
2023-05-15T03:10:23.764Z,100539.84
2023-05-15T03:12:50.409Z,100500.78
2023-05-15T03:15:17.173Z,100530.44
2023-05-15T03:17:44.739Z,100510.66
2023-05-15T03:20:11.317Z,100512.16
2023-05-15T03:22:38.016Z,100507.00
2023-05-15T03:25:04.974Z,100527.91
2023-05-15T03:27:31.522Z,100526.16
2023-05-15T03:29:58.378Z,100465.88
2023-05-15T03:32:25.021Z,100534.31
2023-05-15T03:34:51.751Z,100535.94
2023-05-15T03:37:18.620Z,100533.19
2023-05-15T03:39:45.201Z,100528.16
2023-05-15T03:42:11.794Z,100520.88
2023-05-15T03:44:38.693Z,100478.56
2023-05-15T03:47:05.737Z,100522.97
2023-05-15T03:49:32.287Z,100525.75
2023-05-15T03:51:58.995Z,100526.31
2023-05-15T03:54:25.676Z,100525.84
2023-05-15T03:56:52.530Z,100509.91
2023-05-15T03:59:19.519Z,100524.16
2023-05-15T04:02:03.024Z,100479.47
2023-05-15T04:04:31.192Z,100534.31
2023-05-15T04:06:57.929Z,100509.19
2023-05-15T04:09:24.393Z,100522.78
2023-05-15T04:11:50.953Z,100537.13
2023-05-15T04:14:17.428Z,100536.41
2023-05-15T04:16:44.158Z,100539.09
2023-05-15T04:19:11.083Z,100539.22
2023-05-15T04:21:37.574Z,100524.44
2023-05-15T04:24:04.778Z,100532.81
2023-05-15T04:26:31.548Z,100536.19
2023-05-15T04:29:03.891Z,100533.66
2023-05-15T04:31:31.906Z,100537.56
2023-05-15T04:33:58.824Z,100497.88
2023-05-15T04:36:25.459Z,100513.66
2023-05-15T04:38:52.495Z,100551.34
2023-05-15T04:41:19.045Z,100509.91
2023-05-15T04:43:45.974Z,100547.69
2023-05-15T04:46:12.630Z,100540.47
2023-05-15T04:48:39.641Z,100528.47
2023-05-15T04:51:07.536Z,100523.13
2023-05-15T04:53:34.285Z,100515.84
2023-05-15T04:56:01.295Z,100531.56
2023-05-15T04:58:28.013Z,100515.22
2023-05-15T05:00:54.586Z,100484.13
2023-05-15T05:03:21.775Z,100530.94
2023-05-15T05:05:49.072Z,100511.81
2023-05-15T05:08:15.762Z,100533.63
2023-05-15T05:10:42.849Z,100535.44
2023-05-15T05:13:09.347Z,100540.69
2023-05-15T05:15:37.092Z,100543.09
2023-05-15T05:18:03.896Z,100527.81
2023-05-15T05:20:30.481Z,100524.78
2023-05-15T05:22:57.832Z,100526.88
2023-05-15T05:25:24.720Z,100542.56
2023-05-15T05:27:51.561Z,100473.25
2023-05-15T05:30:18.496Z,100524.63
2023-05-15T05:32:45.203Z,100532.09
2023-05-15T05:35:11.856Z,100544.44
2023-05-15T05:37:40.826Z,100525.50
2023-05-15T05:40:08.794Z,100547.63
2023-05-15T05:42:35.565Z,100551.13
2023-05-15T05:45:02.497Z,100557.03
2023-05-15T05:47:29.338Z,100519.91
2023-05-15T05:49:55.966Z,100549.53
2023-05-15T05:52:23.125Z,100524.56
2023-05-15T05:54:50.038Z,100562.59
2023-05-15T05:57:16.749Z,100554.50
2023-05-15T05:59:43.956Z,100530.81
2023-05-15T06:02:11.429Z,100493.09
2023-05-15T06:04:38.094Z,100552.66
2023-05-15T06:07:05.053Z,100543.97
2023-05-15T06:09:31.960Z,100517.59
2023-05-15T06:11:58.523Z,100554.44
2023-05-15T06:14:25.382Z,100544.63
2023-05-15T06:16:52.616Z,100513.28
2023-05-15T06:19:19.446Z,100550.28
2023-05-15T06:21:46.262Z,100522.09
2023-05-15T06:24:12.819Z,100549.34
2023-05-15T06:26:39.430Z,100547.56
2023-05-15T06:29:06.615Z,100515.75
2023-05-15T06:31:33.199Z,100514.00
2023-05-15T06:33:59.914Z,100542.13
2023-05-15T06:36:27.161Z,100515.84
2023-05-15T06:38:53.653Z,100556.19
2023-05-15T06:41:21.464Z,100535.25
2023-05-15T06:43:47.944Z,100547.06
2023-05-15T06:46:16.996Z,100543.56
2023-05-15T06:48:43.450Z,100557.03
2023-05-15T06:51:10.127Z,100516.72
2023-05-15T06:53:36.750Z,100517.28
2023-05-15T06:56:03.460Z,100561.09
2023-05-15T06:58:30.626Z,100561.25
2023-05-15T07:00:59.325Z,100561.44
2023-05-15T07:03:26.091Z,100499.59
2023-05-15T07:05:53.569Z,100558.75
2023-05-15T07:08:20.104Z,100538.97
2023-05-15T07:10:48.484Z,100507.63
2023-05-15T07:13:18.317Z,100562.44
2023-05-15T07:15:45.288Z,100548.84
2023-05-15T07:18:12.840Z,100575.19
2023-05-15T07:20:39.631Z,100566.81
2023-05-15T07:23:06.786Z,100544.34
2023-05-15T07:25:33.497Z,100559.75
2023-05-15T07:28:00.138Z,100543.88
2023-05-15T07:30:27.344Z,100561.22
2023-05-15T07:32:54.034Z,100499.75
2023-05-15T07:35:21.141Z,100526.69
2023-05-15T07:37:47.681Z,100567.28
2023-05-15T07:40:15.430Z,100571.66
2023-05-15T07:42:43.948Z,100566.13
2023-05-15T07:45:10.590Z,100523.59
2023-05-15T07:47:37.258Z,100574.53
2023-05-15T07:50:04.509Z,100581.00
2023-05-15T07:52:31.419Z,100544.81
2023-05-15T07:54:59.150Z,100574.91
2023-05-15T07:57:26.498Z,100562.75
2023-05-15T07:59:53.289Z,100557.69
2023-05-15T08:02:19.961Z,100575.38
2023-05-15T08:04:46.826Z,100557.75
2023-05-15T08:07:14.427Z,100571.84
2023-05-15T08:09:41.374Z,100562.31
2023-05-15T08:12:22.875Z,100560.72
2023-05-15T08:14:53.127Z,100575.03
2023-05-15T08:17:21.110Z,100577.72
2023-05-15T08:19:48.140Z,100547.78
2023-05-15T08:22:14.872Z,100540.84
2023-05-15T08:24:41.836Z,100568.63
2023-05-15T08:27:09.085Z,100565.69
2023-05-15T08:29:38.581Z,100558.41
2023-05-15T08:32:07.113Z,100552.72
2023-05-15T08:34:33.667Z,100562.28
2023-05-15T08:37:00.273Z,100567.00
2023-05-15T08:39:27.225Z,100559.16
2023-05-15T08:42:01.051Z,100542.13
2023-05-15T08:44:28.103Z,100536.88
2023-05-15T08:46:54.707Z,100573.91
2023-05-15T08:49:32.458Z,100552.91
2023-05-15T08:51:59.567Z,100554.84
2023-05-15T08:54:26.225Z,100572.19
2023-05-15T08:56:53.484Z,100562.06
2023-05-15T08:59:20.827Z,100537.28
2023-05-15T09:01:47.363Z,100503.41
2023-05-15T09:04:14.291Z,100566.00
2023-05-15T09:06:41.772Z,100563.63
2023-05-15T09:09:09.396Z,100561.81
2023-05-15T09:11:36.857Z,100541.81
2023-05-15T09:14:04.684Z,100570.44
2023-05-15T09:16:31.326Z,100536.97
2023-05-15T09:18:59.047Z,100536.75
2023-05-15T09:21:27.389Z,100559.31
2023-05-15T09:23:55.545Z,100542.03
2023-05-15T09:26:22.307Z,100564.31
2023-05-15T09:28:49.465Z,100544.78
2023-05-15T09:31:19.448Z,100544.47
2023-05-15T09:33:46.485Z,100513.03
2023-05-15T09:36:21.649Z,100559.19
2023-05-15T09:38:49.748Z,100509.50
2023-05-15T09:41:24.924Z,100515.06
2023-05-15T09:43:51.535Z,100492.84
2023-05-15T09:46:18.128Z,100556.56
2023-05-15T09:48:44.792Z,100543.88
2023-05-15T09:51:18.424Z,100548.78
2023-05-15T09:53:55.330Z,100548.78
2023-05-15T09:56:22.537Z,100553.69
2023-05-15T09:58:57.716Z,100545.06
2023-05-15T10:01:25.229Z,100537.56
2023-05-15T10:04:03.172Z,100511.84
2023-05-15T10:06:42.805Z,100513.38
2023-05-15T10:09:11.063Z,100521.31
2023-05-15T10:11:39.814Z,100537.16
2023-05-15T10:14:07.703Z,100538.53
2023-05-15T10:16:36.109Z,100493.31
2023-05-15T10:19:07.824Z,100526.91
2023-05-15T10:21:37.356Z,100519.91
2023-05-15T10:24:05.225Z,100516.88
2023-05-15T10:26:42.590Z,100523.59
2023-05-15T10:29:13.716Z,100515.19
2023-05-15T10:31:41.660Z,100525.81
2023-05-15T10:34:09.303Z,100499.56
2023-05-15T10:36:38.088Z,100513.00
2023-05-15T10:39:06.713Z,100486.97
2023-05-15T10:41:36.525Z,100510.47
2023-05-15T10:44:03.478Z,100503.38
2023-05-15T10:46:32.066Z,100499.13
2023-05-15T10:49:00.597Z,100479.31
2023-05-15T10:51:28.866Z,100486.91
2023-05-15T10:54:00.782Z,100483.00
2023-05-15T10:56:32.639Z,100487.75
2023-05-15T10:59:09.082Z,100473.16
2023-05-15T11:01:38.072Z,100475.75
2023-05-15T11:04:17.924Z,100471.66
2023-05-15T11:06:46.545Z,100450.78
2023-05-15T11:09:22.758Z,100465.28
2023-05-15T11:11:52.921Z,100465.84
2023-05-15T11:14:20.044Z,100443.97
2023-05-15T11:16:53.355Z,100462.13
2023-05-15T11:19:23.867Z,100464.72
2023-05-15T11:22:00.344Z,100461.94
2023-05-15T11:24:29.308Z,100459.75
2023-05-15T11:27:00.871Z,100442.09
2023-05-15T11:29:27.353Z,100452.72
2023-05-15T11:31:54.195Z,100449.13
2023-05-15T11:34:32.683Z,100448.03
2023-05-15T11:37:02.712Z,100449.34
2023-05-15T11:39:29.511Z,100439.16
2023-05-15T11:41:57.103Z,100442.06
2023-05-15T11:44:24.491Z,100398.41
2023-05-15T11:46:51.599Z,100426.41
2023-05-15T11:49:19.512Z,100435.63
2023-05-15T11:51:48.389Z,100423.88
2023-05-15T11:54:15.259Z,100398.38
2023-05-15T11:56:44.555Z,100388.41
2023-05-15T11:59:17.211Z,100416.16
2023-05-15T12:01:47.376Z,100422.09
2023-05-15T12:04:15.589Z,100436.44
2023-05-15T12:06:44.502Z,100399.56
2023-05-15T12:09:16.628Z,100403.00
2023-05-15T12:11:54.288Z,100421.66
2023-05-15T12:14:30.503Z,100418.84
2023-05-15T12:17:04.464Z,100389.53
2023-05-15T12:19:31.476Z,100416.91
2023-05-15T12:21:58.001Z,100417.56
2023-05-15T12:24:26.517Z,100384.03
2023-05-15T12:26:54.418Z,100422.31
2023-05-15T12:29:22.621Z,100383.06
2023-05-15T12:31:53.843Z,100396.88
2023-05-15T12:34:21.378Z,100408.81
2023-05-15T12:36:47.873Z,100395.56
2023-05-15T12:39:14.382Z,100401.31
2023-05-15T12:41:40.927Z,100404.78
2023-05-15T12:44:16.441Z,100402.25
2023-05-15T12:46:43.280Z,100397.63
2023-05-15T12:49:10.717Z,100397.22
2023-05-15T12:51:44.165Z,100399.94
2023-05-15T12:54:21.016Z,100375.38
2023-05-15T12:56:48.242Z,100404.34
2023-05-15T12:59:15.118Z,100368.13
2023-05-15T13:01:44.638Z,100399.03
2023-05-15T13:04:11.573Z,100372.34
2023-05-15T13:06:46.282Z,100350.06
2023-05-15T13:09:13.847Z,100366.94
2023-05-15T13:11:43.974Z,100356.94
2023-05-15T13:14:17.616Z,100376.75
2023-05-15T13:16:46.640Z,100390.56
2023-05-15T13:19:13.901Z,100344.59
2023-05-15T13:21:40.895Z,100369.84
2023-05-15T13:24:09.921Z,100392.91
2023-05-15T13:26:37.548Z,100387.06
2023-05-15T13:29:04.116Z,100363.81
2023-05-15T13:31:30.729Z,100353.09
2023-05-15T13:33:57.776Z,100353.88
2023-05-15T13:36:24.264Z,100392.66
2023-05-15T13:38:50.860Z,100319.19
2023-05-15T13:41:17.867Z,100379.59
2023-05-15T13:43:44.657Z,100335.78
2023-05-15T13:46:11.157Z,100320.78
2023-05-15T13:48:37.706Z,100369.06
2023-05-15T13:51:05.209Z,100381.56
2023-05-15T13:53:31.808Z,100383.94
2023-05-15T13:55:58.413Z,100377.44
2023-05-15T13:58:26.683Z,100392.19
2023-05-15T14:00:53.775Z,100333.84
2023-05-15T14:03:20.715Z,100350.09
2023-05-15T14:05:47.345Z,100355.97
2023-05-15T14:08:13.900Z,100383.34
2023-05-15T14:10:40.884Z,100368.03
2023-05-15T14:13:07.638Z,100339.75
2023-05-15T14:15:34.139Z,100379.66
2023-05-15T14:18:01.037Z,100387.38
2023-05-15T14:20:28.107Z,100386.41
2023-05-15T14:22:54.726Z,100388.28
2023-05-15T14:25:21.484Z,100350.78
2023-05-15T14:27:48.059Z,100376.16
2023-05-15T14:30:14.661Z,100385.19
2023-05-15T14:32:41.464Z,100290.69
2023-05-15T14:35:08.047Z,100385.97
2023-05-15T14:37:34.914Z,100387.28
2023-05-15T14:40:01.882Z,100340.09
2023-05-15T14:42:28.405Z,100356.16
2023-05-15T14:44:55.060Z,100383.84
2023-05-15T14:47:21.976Z,100339.41
2023-05-15T14:49:48.510Z,100373.44
2023-05-15T14:52:15.056Z,100359.13
2023-05-15T14:54:42.170Z,100374.78
2023-05-15T14:57:08.797Z,100386.94
2023-05-15T14:59:35.338Z,100368.56
2023-05-15T15:02:02.425Z,100362.03
2023-05-15T15:04:33.964Z,100327.59
2023-05-15T15:07:03.511Z,100377.50
2023-05-15T15:09:30.630Z,100345.91
2023-05-15T15:11:57.101Z,100331.88
2023-05-15T15:14:24.182Z,100378.78
2023-05-15T15:16:51.586Z,100388.34
2023-05-15T15:19:20.172Z,100392.94
2023-05-15T15:21:48.043Z,100349.75
2023-05-15T15:24:15.259Z,100371.81
2023-05-15T15:26:41.881Z,100359.63
2023-05-15T15:29:09.385Z,100350.34
2023-05-15T15:31:36.635Z,100355.16
2023-05-15T15:34:05.336Z,100394.41
2023-05-15T15:36:32.553Z,100408.97
2023-05-15T15:38:59.364Z,100392.44
2023-05-15T15:41:26.058Z,100397.72
2023-05-15T15:43:53.758Z,100410.50
2023-05-15T15:46:20.783Z,100375.53
2023-05-15T15:48:47.369Z,100414.13
2023-05-15T15:51:13.855Z,100412.59
2023-05-15T15:53:40.368Z,100422.25
2023-05-15T15:56:07.624Z,100390.09
2023-05-15T15:58:34.327Z,100405.53
2023-05-15T16:01:01.200Z,100399.81
2023-05-15T16:03:27.947Z,100422.31
2023-05-15T16:05:54.550Z,100392.09
2023-05-15T16:08:21.124Z,100419.78
2023-05-15T16:10:47.677Z,100418.13
2023-05-15T16:13:14.395Z,100402.84
2023-05-15T16:15:40.857Z,100414.91
2023-05-15T16:18:07.705Z,100408.50
2023-05-15T16:20:35.253Z,100378.09
2023-05-15T16:23:02.002Z,100420.66
2023-05-15T16:25:28.500Z,100424.59
2023-05-15T16:27:54.978Z,100386.66
2023-05-15T16:30:21.793Z,100432.91
2023-05-15T16:32:49.051Z,100380.63
2023-05-15T16:35:15.786Z,100421.91
2023-05-15T16:37:42.605Z,100432.19
2023-05-15T16:40:09.782Z,100365.34
2023-05-15T16:42:38.052Z,100424.81
2023-05-15T16:45:07.971Z,100428.38
2023-05-15T16:47:36.591Z,100420.63
2023-05-15T16:50:03.551Z,100439.69
2023-05-15T16:52:30.084Z,100387.59
2023-05-15T16:54:56.674Z,100445.19
2023-05-15T16:57:23.221Z,100452.53
2023-05-15T16:59:50.156Z,100444.72
2023-05-15T17:02:16.726Z,100446.69
2023-05-15T17:04:43.243Z,100444.06
2023-05-15T17:07:09.777Z,100395.44
2023-05-15T17:09:38.298Z,100403.47
2023-05-15T17:12:05.500Z,100415.91
2023-05-15T17:14:32.325Z,100430.84
2023-05-15T17:16:58.789Z,100342.06
2023-05-15T17:19:25.437Z,100391.94
2023-05-15T17:21:51.947Z,100467.25
2023-05-15T17:24:18.974Z,100461.88
2023-05-15T17:26:45.473Z,100468.81
2023-05-15T17:29:12.026Z,100475.69
2023-05-15T17:31:39.164Z,100463.91
2023-05-15T17:34:05.641Z,100480.69
2023-05-15T17:36:35.123Z,100462.31
2023-05-15T17:39:01.603Z,100485.91
2023-05-15T17:41:28.765Z,100477.00
2023-05-15T17:43:55.285Z,100444.78
2023-05-15T17:46:21.801Z,100488.41
2023-05-15T17:48:48.315Z,100471.25
2023-05-15T17:51:14.761Z,100498.66
2023-05-15T17:53:41.225Z,100501.97
2023-05-15T17:56:07.764Z,100496.41
2023-05-15T17:58:34.314Z,100499.47
2023-05-15T18:01:01.273Z,100507.84
2023-05-15T18:03:27.950Z,100495.56
2023-05-15T18:05:54.761Z,100489.38
2023-05-15T18:08:21.326Z,100511.47
2023-05-15T18:10:47.836Z,100509.13
2023-05-15T18:13:14.465Z,100504.56
2023-05-15T18:15:41.011Z,100467.72
2023-05-15T18:18:08.169Z,100527.00
2023-05-15T18:20:34.881Z,100487.63
2023-05-15T18:23:01.724Z,100527.41
2023-05-15T18:25:28.329Z,100477.31
2023-05-15T18:27:55.058Z,100501.19
2023-05-15T18:30:21.562Z,100537.63
2023-05-15T18:32:48.089Z,100544.53
2023-05-15T18:35:14.612Z,100550.16
2023-05-15T18:37:41.072Z,100556.53
2023-05-15T18:40:08.241Z,100559.16
2023-05-15T18:42:35.116Z,100560.84
2023-05-15T18:45:02.152Z,100528.59
2023-05-15T18:47:28.662Z,100572.47
2023-05-15T18:49:55.248Z,100566.84
2023-05-15T18:52:21.812Z,100588.91
2023-05-15T18:54:48.543Z,100565.88
2023-05-15T18:57:14.997Z,100590.25
2023-05-15T18:59:41.734Z,100562.53
2023-05-15T19:02:09.660Z,100600.94
2023-05-15T19:04:36.367Z,100560.56
2023-05-15T19:07:02.861Z,100608.69
2023-05-15T19:09:29.387Z,100619.59
2023-05-15T19:11:55.983Z,100618.47
2023-05-15T19:14:22.530Z,100609.69
2023-05-15T19:16:49.228Z,100614.44
2023-05-15T19:19:15.924Z,100594.56
2023-05-15T19:21:42.465Z,100626.72
2023-05-15T19:24:08.899Z,100639.19
2023-05-15T19:26:35.374Z,100633.78
2023-05-15T19:29:02.070Z,100631.53
2023-05-15T19:31:32.012Z,100639.97
2023-05-15T19:33:59.685Z,100601.00
2023-05-15T19:36:26.313Z,100639.75
2023-05-15T19:38:53.395Z,100583.88
2023-05-15T19:41:21.578Z,100599.00
2023-05-15T19:43:50.578Z,100661.06
2023-05-15T19:46:18.336Z,100655.28
2023-05-15T19:48:45.088Z,100622.47
2023-05-15T19:51:12.095Z,100665.94
2023-05-15T19:53:38.592Z,100631.69
2023-05-15T19:56:05.638Z,100657.53
2023-05-15T19:58:32.248Z,100661.75
2023-05-15T20:00:58.998Z,100670.41
2023-05-15T20:03:33.010Z,100654.69
2023-05-15T20:06:03.147Z,100660.72
2023-05-15T20:08:29.715Z,100646.34
2023-05-15T20:10:56.914Z,100649.84
2023-05-15T20:13:23.661Z,100661.13
2023-05-15T20:15:57.792Z,100684.25
2023-05-15T20:18:25.155Z,100646.63
2023-05-15T20:20:54.486Z,100664.94
2023-05-15T20:23:21.285Z,100687.78
2023-05-15T20:25:49.770Z,100682.63
2023-05-15T20:28:17.698Z,100641.44
2023-05-15T20:30:47.143Z,100631.38
2023-05-15T20:33:13.804Z,100677.38
2023-05-15T20:35:40.371Z,100693.13
2023-05-15T20:38:06.871Z,100692.94
2023-05-15T20:40:33.617Z,100692.31
2023-05-15T20:43:01.203Z,100686.91
2023-05-15T20:45:32.340Z,100661.59
2023-05-15T20:47:59.085Z,100688.97
2023-05-15T20:50:26.155Z,100679.53
2023-05-15T20:52:53.165Z,100680.56
2023-05-15T20:55:21.446Z,100673.31
2023-05-15T20:57:49.019Z,100706.59
2023-05-15T21:00:16.703Z,100703.41
2023-05-15T21:02:44.146Z,100701.34
2023-05-15T21:05:10.934Z,100701.22
2023-05-15T21:07:37.857Z,100679.66
2023-05-15T21:10:04.829Z,100683.34
2023-05-15T21:12:32.700Z,100699.31
2023-05-15T21:14:59.151Z,100707.38
2023-05-15T21:17:25.584Z,100691.94
2023-05-15T21:19:52.374Z,100705.75
2023-05-15T21:22:18.866Z,100711.63
2023-05-15T21:24:46.241Z,100705.53
2023-05-15T21:27:12.717Z,100712.78
2023-05-15T21:29:39.191Z,100716.00
2023-05-15T21:32:06.439Z,100716.81
2023-05-15T21:34:32.901Z,100670.47
2023-05-15T21:37:02.013Z,100713.41
2023-05-15T21:39:28.505Z,100719.50
2023-05-15T21:41:55.076Z,100723.91
2023-05-15T21:44:21.613Z,100660.69
2023-05-15T21:46:48.921Z,100718.50
2023-05-15T21:49:15.544Z,100719.81
2023-05-15T21:51:42.015Z,100714.47
2023-05-15T21:54:08.470Z,100709.38
2023-05-15T21:56:35.990Z,100720.00
2023-05-15T21:59:02.541Z,100681.75
2023-05-15T22:01:29.510Z,100728.41
2023-05-15T22:03:56.369Z,100722.53
2023-05-15T22:06:23.136Z,100726.03
2023-05-15T22:08:49.638Z,100718.97
2023-05-15T22:11:17.095Z,100717.16
2023-05-15T22:13:43.630Z,100724.19
2023-05-15T22:16:10.278Z,100712.41
2023-05-15T22:18:37.772Z,100715.75
2023-05-15T22:21:04.312Z,100686.53
2023-05-15T22:23:31.455Z,100655.56
2023-05-15T22:25:57.918Z,100715.03
2023-05-15T22:28:24.631Z,100722.50
2023-05-15T22:30:51.140Z,100720.69
2023-05-15T22:33:24.320Z,100717.63
2023-05-15T22:35:52.697Z,100721.19
2023-05-15T22:38:19.513Z,100698.53
2023-05-15T22:40:53.081Z,100728.41
2023-05-15T22:43:19.854Z,100700.38
2023-05-15T22:45:46.341Z,100728.44
2023-05-15T22:48:12.826Z,100733.28
2023-05-15T22:50:39.372Z,100727.41
2023-05-15T22:53:06.253Z,100737.13
2023-05-15T22:55:32.801Z,100626.00
2023-05-15T22:57:59.559Z,100738.63
2023-05-15T23:00:26.333Z,100722.53
2023-05-15T23:02:55.239Z,100719.81
2023-05-15T23:05:22.411Z,100749.75
2023-05-15T23:07:48.986Z,100704.09
2023-05-15T23:10:15.514Z,100745.69
2023-05-15T23:12:42.503Z,100741.34
2023-05-15T23:15:10.415Z,100742.16
2023-05-15T23:17:37.036Z,100742.03
2023-05-15T23:20:06.780Z,100748.84
2023-05-15T23:22:33.382Z,100705.88
2023-05-15T23:24:59.829Z,100741.00
2023-05-15T23:27:26.386Z,100699.03
2023-05-15T23:29:52.929Z,100750.69
2023-05-15T23:32:19.431Z,100724.97
2023-05-15T23:34:46.387Z,100772.97
2023-05-15T23:37:12.863Z,100776.28
2023-05-15T23:39:39.408Z,100749.41
2023-05-15T23:42:06.243Z,100749.41
2023-05-15T23:44:32.760Z,100783.09
2023-05-15T23:46:59.291Z,100789.44
2023-05-15T23:49:25.897Z,100776.28
2023-05-15T23:51:52.447Z,100779.63
2023-05-15T23:54:19.008Z,100722.91
2023-05-15T23:56:45.491Z,100747.13
2023-05-15T23:59:13.741Z,100785.53
